sensor_id;sensor_type;location;lat;lon;timestamp;P1;durP1;ratioP1;P2;durP2;ratioP2
1122;SDS011;548;48.778;9.252;2022-07-23T00:01:19;17.00;;;16.10;;
1122;SDS011;548;48.778;9.252;2022-07-23T00:03:45;16.90;;;16.00;;
1122;SDS011;548;48.778;9.252;2022-07-23T00:06:12;16.40;;;15.60;;
1122;SDS011;548;48.778;9.252;2022-07-23T00:08:39;16.00;;;15.20;;
1122;SDS011;548;48.778;9.252;2022-07-23T00:11:07;16.97;;;16.17;;
1122;SDS011;548;48.778;9.252;2022-07-23T00:13:34;16.27;;;15.47;;
1122;SDS011;548;48.778;9.252;2022-07-23T00:16:01;16.57;;;15.47;;
1122;SDS011;548;48.778;9.252;2022-07-23T00:18:28;15.83;;;15.03;;
1122;SDS011;548;48.778;9.252;2022-07-23T00:20:55;15.27;;;14.50;;
1122;SDS011;548;48.778;9.252;2022-07-23T00:23:21;15.60;;;14.90;;
1122;SDS011;548;48.778;9.252;2022-07-23T00:25:49;15.00;;;14.30;;
1122;SDS011;548;48.778;9.252;2022-07-23T00:28:18;15.33;;;14.63;;
1122;SDS011;548;48.778;9.252;2022-07-23T00:30:44;15.70;;;14.80;;
1122;SDS011;548;48.778;9.252;2022-07-23T00:33:11;14.33;;;13.73;;
1122;SDS011;548;48.778;9.252;2022-07-23T00:35:39;14.67;;;13.90;;
1122;SDS011;548;48.778;9.252;2022-07-23T00:38:08;15.30;;;14.50;;
1122;SDS011;548;48.778;9.252;2022-07-23T00:40:36;15.27;;;14.57;;
1122;SDS011;548;48.778;9.252;2022-07-23T00:43:03;15.67;;;14.87;;
1122;SDS011;548;48.778;9.252;2022-07-23T00:45:31;18.80;;;17.70;;
1122;SDS011;548;48.778;9.252;2022-07-23T00:47:58;22.17;;;21.17;;
1122;SDS011;548;48.778;9.252;2022-07-23T00:50:25;27.40;;;26.13;;
1122;SDS011;548;48.778;9.252;2022-07-23T00:52:53;26.70;;;25.50;;
1122;SDS011;548;48.778;9.252;2022-07-23T00:55:20;25.07;;;23.93;;
1122;SDS011;548;48.778;9.252;2022-07-23T00:57:47;24.50;;;23.30;;
1122;SDS011;548;48.778;9.252;2022-07-23T01:00:14;23.37;;;22.27;;
1122;SDS011;548;48.778;9.252;2022-07-23T01:02:43;17.67;;;16.80;;
1122;SDS011;548;48.778;9.252;2022-07-23T01:05:10;16.20;;;15.40;;
1122;SDS011;548;48.778;9.252;2022-07-23T01:07:38;15.27;;;14.50;;
1122;SDS011;548;48.778;9.252;2022-07-23T01:10:05;15.40;;;14.70;;
1122;SDS011;548;48.778;9.252;2022-07-23T01:12:53;15.80;;;14.80;;
1122;SDS011;548;48.778;9.252;2022-07-23T01:15:20;14.47;;;13.87;;
1122;SDS011;548;48.778;9.252;2022-07-23T01:17:48;16.23;;;15.23;;
1122;SDS011;548;48.778;9.252;2022-07-23T01:20:15;15.03;;;14.33;;
1122;SDS011;548;48.778;9.252;2022-07-23T01:22:44;14.77;;;14.17;;
1122;SDS011;548;48.778;9.252;2022-07-23T01:25:11;15.30;;;14.67;;
1122;SDS011;548;48.778;9.252;2022-07-23T01:27:38;15.13;;;14.43;;
1122;SDS011;548;48.778;9.252;2022-07-23T01:30:05;14.10;;;13.50;;
1122;SDS011;548;48.778;9.252;2022-07-23T01:32:33;15.40;;;14.60;;
1122;SDS011;548;48.778;9.252;2022-07-23T01:34:59;15.10;;;14.33;;
1122;SDS011;548;48.778;9.252;2022-07-23T01:37:26;14.73;;;14.10;;
1122;SDS011;548;48.778;9.252;2022-07-23T01:39:54;14.80;;;14.07;;
1122;SDS011;548;48.778;9.252;2022-07-23T01:42:21;14.40;;;13.70;;
1122;SDS011;548;48.778;9.252;2022-07-23T01:44:48;15.30;;;14.60;;
1122;SDS011;548;48.778;9.252;2022-07-23T01:47:15;15.03;;;14.33;;
1122;SDS011;548;48.778;9.252;2022-07-23T01:49:42;15.67;;;14.87;;
1122;SDS011;548;48.778;9.252;2022-07-23T01:52:09;15.17;;;14.40;;
1122;SDS011;548;48.778;9.252;2022-07-23T01:54:36;14.33;;;13.67;;
1122;SDS011;548;48.778;9.252;2022-07-23T01:57:05;14.80;;;14.00;;
1122;SDS011;548;48.778;9.252;2022-07-23T01:59:32;14.27;;;13.57;;
1122;SDS011;548;48.778;9.252;2022-07-23T02:02:00;14.80;;;14.10;;
1122;SDS011;548;48.778;9.252;2022-07-23T02:04:28;14.57;;;13.80;;
1122;SDS011;548;48.778;9.252;2022-07-23T02:06:55;14.90;;;14.10;;
1122;SDS011;548;48.778;9.252;2022-07-23T02:09:22;14.33;;;13.73;;
1122;SDS011;548;48.778;9.252;2022-07-23T02:11:48;15.23;;;14.53;;
1122;SDS011;548;48.778;9.252;2022-07-23T02:14:17;14.60;;;13.90;;
1122;SDS011;548;48.778;9.252;2022-07-23T02:16:43;14.47;;;13.70;;
1122;SDS011;548;48.778;9.252;2022-07-23T02:19:10;14.77;;;14.07;;
1122;SDS011;548;48.778;9.252;2022-07-23T02:21:37;16.00;;;15.13;;
1122;SDS011;548;48.778;9.252;2022-07-23T02:24:04;15.20;;;14.43;;
1122;SDS011;548;48.778;9.252;2022-07-23T02:26:31;14.77;;;14.17;;
1122;SDS011;548;48.778;9.252;2022-07-23T02:28:59;15.43;;;14.73;;
1122;SDS011;548;48.778;9.252;2022-07-23T02:31:27;15.20;;;14.40;;
1122;SDS011;548;48.778;9.252;2022-07-23T02:33:54;15.10;;;14.33;;
1122;SDS011;548;48.778;9.252;2022-07-23T02:36:21;15.00;;;14.30;;
1122;SDS011;548;48.778;9.252;2022-07-23T02:38:48;14.90;;;14.20;;
1122;SDS011;548;48.778;9.252;2022-07-23T02:41:15;13.40;;;12.80;;
1122;SDS011;548;48.778;9.252;2022-07-23T02:43:42;14.67;;;13.97;;
1122;SDS011;548;48.778;9.252;2022-07-23T02:46:08;14.73;;;13.97;;
1122;SDS011;548;48.778;9.252;2022-07-23T02:48:36;14.87;;;14.00;;
1122;SDS011;548;48.778;9.252;2022-07-23T02:51:03;15.80;;;15.10;;
1122;SDS011;548;48.778;9.252;2022-07-23T02:53:30;15.57;;;14.77;;
1122;SDS011;548;48.778;9.252;2022-07-23T02:55:57;14.80;;;14.10;;
1122;SDS011;548;48.778;9.252;2022-07-23T02:58:23;15.60;;;14.90;;
1122;SDS011;548;48.778;9.252;2022-07-23T03:00:52;15.67;;;14.87;;
1122;SDS011;548;48.778;9.252;2022-07-23T03:03:18;13.90;;;13.30;;
1122;SDS011;548;48.778;9.252;2022-07-23T03:05:47;13.90;;;13.10;;
1122;SDS011;548;48.778;9.252;2022-07-23T03:08:14;14.60;;;14.00;;
1122;SDS011;548;48.778;9.252;2022-07-23T03:10:41;15.10;;;14.40;;
1122;SDS011;548;48.778;9.252;2022-07-23T03:13:08;15.60;;;14.67;;
1122;SDS011;548;48.778;9.252;2022-07-23T03:15:35;15.13;;;14.43;;
1122;SDS011;548;48.778;9.252;2022-07-23T03:18:01;16.40;;;15.60;;
1122;SDS011;548;48.778;9.252;2022-07-23T03:20:28;16.67;;;15.80;;
1122;SDS011;548;48.778;9.252;2022-07-23T03:22:56;14.37;;;13.47;;
1122;SDS011;548;48.778;9.252;2022-07-23T03:25:23;14.13;;;13.53;;
1122;SDS011;548;48.778;9.252;2022-07-23T03:27:50;16.17;;;15.33;;
1122;SDS011;548;48.778;9.252;2022-07-23T03:30:16;16.10;;;15.30;;
1122;SDS011;548;48.778;9.252;2022-07-23T03:32:43;16.80;;;16.00;;
1122;SDS011;548;48.778;9.252;2022-07-23T03:35:10;16.43;;;15.37;;
1122;SDS011;548;48.778;9.252;2022-07-23T03:37:37;16.97;;;16.17;;
1122;SDS011;548;48.778;9.252;2022-07-23T03:40:05;16.73;;;16.03;;
1122;SDS011;548;48.778;9.252;2022-07-23T03:42:33;14.70;;;13.80;;
1122;SDS011;548;48.778;9.252;2022-07-23T03:45:01;15.47;;;14.77;;
1122;SDS011;548;48.778;9.252;2022-07-23T03:47:28;16.80;;;15.53;;
1122;SDS011;548;48.778;9.252;2022-07-23T03:49:54;17.03;;;16.07;;
1122;SDS011;548;48.778;9.252;2022-07-23T03:52:21;17.00;;;16.20;;
1122;SDS011;548;48.778;9.252;2022-07-23T03:54:48;16.00;;;15.30;;
1122;SDS011;548;48.778;9.252;2022-07-23T03:57:16;19.07;;;17.90;;
1122;SDS011;548;48.778;9.252;2022-07-23T03:59:43;17.33;;;16.53;;
1122;SDS011;548;48.778;9.252;2022-07-23T04:02:09;15.53;;;14.57;;
1122;SDS011;548;48.778;9.252;2022-07-23T04:04:36;17.07;;;16.17;;
1122;SDS011;548;48.778;9.252;2022-07-23T04:07:03;16.40;;;15.60;;
1122;SDS011;548;48.778;9.252;2022-07-23T04:09:31;16.80;;;15.87;;
1122;SDS011;548;48.778;9.252;2022-07-23T04:11:59;16.60;;;15.70;;
1122;SDS011;548;48.778;9.252;2022-07-23T04:14:27;17.93;;;17.00;;
1122;SDS011;548;48.778;9.252;2022-07-23T04:16:54;16.03;;;15.33;;
1122;SDS011;548;48.778;9.252;2022-07-23T04:19:20;17.70;;;16.70;;
1122;SDS011;548;48.778;9.252;2022-07-23T04:21:47;16.83;;;16.00;;
1122;SDS011;548;48.778;9.252;2022-07-23T04:24:14;16.50;;;15.60;;
1122;SDS011;548;48.778;9.252;2022-07-23T04:26:40;16.87;;;15.80;;
1122;SDS011;548;48.778;9.252;2022-07-23T04:29:07;16.30;;;15.50;;
1122;SDS011;548;48.778;9.252;2022-07-23T04:31:35;17.53;;;16.10;;
1122;SDS011;548;48.778;9.252;2022-07-23T04:34:02;17.90;;;16.90;;
1122;SDS011;548;48.778;9.252;2022-07-23T04:36:29;17.30;;;16.50;;
1122;SDS011;548;48.778;9.252;2022-07-23T04:38:56;17.30;;;16.37;;
1122;SDS011;548;48.778;9.252;2022-07-23T04:41:23;16.73;;;15.90;;
1122;SDS011;548;48.778;9.252;2022-07-23T04:43:49;16.67;;;15.80;;
1122;SDS011;548;48.778;9.252;2022-07-23T04:46:16;16.77;;;15.73;;
1122;SDS011;548;48.778;9.252;2022-07-23T04:48:44;16.60;;;15.70;;
1122;SDS011;548;48.778;9.252;2022-07-23T04:51:11;15.90;;;14.97;;
1122;SDS011;548;48.778;9.252;2022-07-23T04:53:38;17.03;;;16.13;;
1122;SDS011;548;48.778;9.252;2022-07-23T04:56:04;16.80;;;15.87;;
1122;SDS011;548;48.778;9.252;2022-07-23T04:58:31;16.17;;;15.27;;
1122;SDS011;548;48.778;9.252;2022-07-23T05:00:58;17.10;;;16.30;;
1122;SDS011;548;48.778;9.252;2022-07-23T05:03:25;16.50;;;15.60;;
1122;SDS011;548;48.778;9.252;2022-07-23T05:05:53;16.77;;;15.77;;
1122;SDS011;548;48.778;9.252;2022-07-23T05:08:20;16.27;;;15.47;;
1122;SDS011;548;48.778;9.252;2022-07-23T05:10:47;17.37;;;16.57;;
1122;SDS011;548;48.778;9.252;2022-07-23T05:13:13;17.80;;;16.80;;
1122;SDS011;548;48.778;9.252;2022-07-23T05:15:40;18.00;;;16.80;;
1122;SDS011;548;48.778;9.252;2022-07-23T05:18:07;17.13;;;16.23;;
1122;SDS011;548;48.778;9.252;2022-07-23T05:20:34;17.37;;;16.37;;
1122;SDS011;548;48.778;9.252;2022-07-23T05:23:02;17.47;;;16.57;;
1122;SDS011;548;48.778;9.252;2022-07-23T05:25:29;17.57;;;16.50;;
1122;SDS011;548;48.778;9.252;2022-07-23T05:27:56;17.23;;;16.27;;
1122;SDS011;548;48.778;9.252;2022-07-23T05:30:23;18.07;;;17.27;;
1122;SDS011;548;48.778;9.252;2022-07-23T05:32:49;17.47;;;16.43;;
1122;SDS011;548;48.778;9.252;2022-07-23T05:35:16;17.73;;;16.73;;
1122;SDS011;548;48.778;9.252;2022-07-23T05:37:43;19.17;;;18.07;;
1122;SDS011;548;48.778;9.252;2022-07-23T05:40:11;17.87;;;16.97;;
1122;SDS011;548;48.778;9.252;2022-07-23T05:42:39;18.83;;;17.80;;
1122;SDS011;548;48.778;9.252;2022-07-23T05:45:07;18.27;;;17.27;;
1122;SDS011;548;48.778;9.252;2022-07-23T05:47:41;18.10;;;17.17;;
1122;SDS011;548;48.778;9.252;2022-07-23T05:50:09;18.20;;;17.20;;
1122;SDS011;548;48.778;9.252;2022-07-23T05:52:37;18.33;;;17.33;;
1122;SDS011;548;48.778;9.252;2022-07-23T05:55:04;18.27;;;17.17;;
1122;SDS011;548;48.778;9.252;2022-07-23T05:57:33;19.73;;;18.53;;
1122;SDS011;548;48.778;9.252;2022-07-23T06:00:00;19.90;;;18.50;;
1122;SDS011;548;48.778;9.252;2022-07-23T06:02:27;18.57;;;17.40;;
1122;SDS011;548;48.778;9.252;2022-07-23T06:04:53;19.60;;;18.40;;
1122;SDS011;548;48.778;9.252;2022-07-23T06:07:20;18.67;;;17.47;;
1122;SDS011;548;48.778;9.252;2022-07-23T06:09:47;19.30;;;18.10;;
1122;SDS011;548;48.778;9.252;2022-07-23T06:12:14;17.63;;;16.50;;
1122;SDS011;548;48.778;9.252;2022-07-23T06:14:42;17.70;;;16.80;;
1122;SDS011;548;48.778;9.252;2022-07-23T06:17:09;18.67;;;17.67;;
1122;SDS011;548;48.778;9.252;2022-07-23T06:19:36;18.17;;;17.23;;
1122;SDS011;548;48.778;9.252;2022-07-23T06:22:02;18.80;;;17.80;;
1122;SDS011;548;48.778;9.252;2022-07-23T06:24:29;18.63;;;17.43;;
1122;SDS011;548;48.778;9.252;2022-07-23T06:26:56;18.77;;;17.87;;
1122;SDS011;548;48.778;9.252;2022-07-23T06:29:22;18.33;;;17.43;;
1122;SDS011;548;48.778;9.252;2022-07-23T06:31:50;17.80;;;16.83;;
1122;SDS011;548;48.778;9.252;2022-07-23T06:34:17;17.20;;;16.30;;
1122;SDS011;548;48.778;9.252;2022-07-23T06:36:44;18.77;;;17.73;;
1122;SDS011;548;48.778;9.252;2022-07-23T06:39:10;17.93;;;17.03;;
1122;SDS011;548;48.778;9.252;2022-07-23T06:41:37;16.80;;;16.03;;
1122;SDS011;548;48.778;9.252;2022-07-23T06:44:04;18.70;;;17.70;;
1122;SDS011;548;48.778;9.252;2022-07-23T06:46:31;18.50;;;17.50;;
1122;SDS011;548;48.778;9.252;2022-07-23T06:48:59;17.33;;;16.33;;
1122;SDS011;548;48.778;9.252;2022-07-23T06:51:25;18.43;;;17.17;;
1122;SDS011;548;48.778;9.252;2022-07-23T06:53:52;18.67;;;17.57;;
1122;SDS011;548;48.778;9.252;2022-07-23T06:56:19;18.23;;;17.33;;
1122;SDS011;548;48.778;9.252;2022-07-23T06:58:45;17.40;;;16.60;;
1122;SDS011;548;48.778;9.252;2022-07-23T07:01:12;17.50;;;16.70;;
1122;SDS011;548;48.778;9.252;2022-07-23T07:03:39;17.03;;;16.03;;
1122;SDS011;548;48.778;9.252;2022-07-23T07:06:07;17.87;;;16.33;;
1122;SDS011;548;48.778;9.252;2022-07-23T07:08:34;18.57;;;17.57;;
1122;SDS011;548;48.778;9.252;2022-07-23T07:11:01;18.67;;;17.27;;
1122;SDS011;548;48.778;9.252;2022-07-23T07:13:27;17.20;;;16.30;;
1122;SDS011;548;48.778;9.252;2022-07-23T07:15:54;16.73;;;15.93;;
1122;SDS011;548;48.778;9.252;2022-07-23T07:18:21;16.27;;;15.47;;
1122;SDS011;548;48.778;9.252;2022-07-23T07:20:48;17.53;;;16.30;;
1122;SDS011;548;48.778;9.252;2022-07-23T07:23:16;16.53;;;15.70;;
1122;SDS011;548;48.778;9.252;2022-07-23T07:25:43;18.37;;;17.47;;
1122;SDS011;548;48.778;9.252;2022-07-23T07:28:18;18.23;;;17.33;;
1122;SDS011;548;48.778;9.252;2022-07-23T07:30:45;18.53;;;17.37;;
1122;SDS011;548;48.778;9.252;2022-07-23T07:33:12;18.33;;;17.30;;
1122;SDS011;548;48.778;9.252;2022-07-23T07:35:38;18.53;;;17.63;;
1122;SDS011;548;48.778;9.252;2022-07-23T07:38:05;16.47;;;15.57;;
1122;SDS011;548;48.778;9.252;2022-07-23T07:40:33;18.10;;;17.10;;
1122;SDS011;548;48.778;9.252;2022-07-23T07:43:00;17.50;;;16.60;;
1122;SDS011;548;48.778;9.252;2022-07-23T07:45:28;18.83;;;17.77;;
1122;SDS011;548;48.778;9.252;2022-07-23T07:47:55;18.60;;;17.50;;
1122;SDS011;548;48.778;9.252;2022-07-23T07:50:22;18.47;;;17.37;;
1122;SDS011;548;48.778;9.252;2022-07-23T07:52:49;17.60;;;16.80;;
1122;SDS011;548;48.778;9.252;2022-07-23T07:55:16;20.20;;;19.00;;
1122;SDS011;548;48.778;9.252;2022-07-23T07:57:44;17.37;;;16.20;;
1122;SDS011;548;48.778;9.252;2022-07-23T08:00:10;18.50;;;17.60;;
1122;SDS011;548;48.778;9.252;2022-07-23T08:02:42;18.90;;;17.80;;
1122;SDS011;548;48.778;9.252;2022-07-23T08:05:10;18.60;;;17.50;;
1122;SDS011;548;48.778;9.252;2022-07-23T08:07:36;17.83;;;17.03;;
1122;SDS011;548;48.778;9.252;2022-07-23T08:10:04;18.00;;;17.20;;
1122;SDS011;548;48.778;9.252;2022-07-23T08:12:41;17.90;;;16.90;;
1122;SDS011;548;48.778;9.252;2022-07-23T08:15:11;19.87;;;18.93;;
1122;SDS011;548;48.778;9.252;2022-07-23T08:17:38;17.50;;;16.70;;
1122;SDS011;548;48.778;9.252;2022-07-23T08:20:06;18.60;;;17.67;;
1122;SDS011;548;48.778;9.252;2022-07-23T08:22:47;17.50;;;16.60;;
1122;SDS011;548;48.778;9.252;2022-07-23T08:25:15;18.50;;;17.70;;
1122;SDS011;548;48.778;9.252;2022-07-23T08:27:45;16.70;;;15.90;;
1122;SDS011;548;48.778;9.252;2022-07-23T08:30:13;20.00;;;18.90;;
1122;SDS011;548;48.778;9.252;2022-07-23T08:32:47;18.87;;;17.77;;
1122;SDS011;548;48.778;9.252;2022-07-23T08:35:15;16.50;;;15.60;;
1122;SDS011;548;48.778;9.252;2022-07-23T08:37:42;16.10;;;15.30;;
1122;SDS011;548;48.778;9.252;2022-07-23T08:40:09;18.80;;;17.63;;
1122;SDS011;548;48.778;9.252;2022-07-23T08:42:37;18.60;;;17.50;;
1122;SDS011;548;48.778;9.252;2022-07-23T08:45:04;20.20;;;18.90;;
1122;SDS011;548;48.778;9.252;2022-07-23T08:47:36;18.60;;;17.70;;
1122;SDS011;548;48.778;9.252;2022-07-23T08:50:04;19.13;;;18.03;;
1122;SDS011;548;48.778;9.252;2022-07-23T08:52:33;17.70;;;16.70;;
1122;SDS011;548;48.778;9.252;2022-07-23T08:55:02;18.30;;;17.40;;
1122;SDS011;548;48.778;9.252;2022-07-23T08:57:29;17.33;;;16.43;;
1122;SDS011;548;48.778;9.252;2022-07-23T08:59:56;17.43;;;16.57;;
1122;SDS011;548;48.778;9.252;2022-07-23T09:02:22;17.73;;;16.93;;
1122;SDS011;548;48.778;9.252;2022-07-23T09:04:50;16.97;;;16.20;;
1122;SDS011;548;48.778;9.252;2022-07-23T09:07:17;17.23;;;16.43;;
1122;SDS011;548;48.778;9.252;2022-07-23T09:09:44;17.90;;;17.10;;
1122;SDS011;548;48.778;9.252;2022-07-23T09:12:11;17.17;;;16.43;;
1122;SDS011;548;48.778;9.252;2022-07-23T09:14:38;18.30;;;17.50;;
1122;SDS011;548;48.778;9.252;2022-07-23T09:17:10;17.33;;;16.53;;
1122;SDS011;548;48.778;9.252;2022-07-23T09:19:37;17.67;;;16.87;;
1122;SDS011;548;48.778;9.252;2022-07-23T09:22:22;18.50;;;17.40;;
1122;SDS011;548;48.778;9.252;2022-07-23T09:25:10;18.80;;;18.00;;
1122;SDS011;548;48.778;9.252;2022-07-23T09:27:45;18.20;;;17.40;;
1122;SDS011;548;48.778;9.252;2022-07-23T09:30:14;18.77;;;17.87;;
1122;SDS011;548;48.778;9.252;2022-07-23T09:32:41;17.83;;;17.03;;
1122;SDS011;548;48.778;9.252;2022-07-23T09:35:08;18.03;;;17.23;;
1122;SDS011;548;48.778;9.252;2022-07-23T09:37:36;18.27;;;17.47;;
1122;SDS011;548;48.778;9.252;2022-07-23T09:40:04;18.60;;;17.80;;
1122;SDS011;548;48.778;9.252;2022-07-23T09:42:31;17.77;;;16.97;;
1122;SDS011;548;48.778;9.252;2022-07-23T09:44:59;18.07;;;17.27;;
1122;SDS011;548;48.778;9.252;2022-07-23T09:47:26;18.17;;;17.27;;
1122;SDS011;548;48.778;9.252;2022-07-23T09:49:57;17.60;;;16.70;;
1122;SDS011;548;48.778;9.252;2022-07-23T09:52:26;18.03;;;17.33;;
1122;SDS011;548;48.778;9.252;2022-07-23T09:54:58;18.27;;;17.37;;
1122;SDS011;548;48.778;9.252;2022-07-23T09:57:26;17.40;;;16.60;;
1122;SDS011;548;48.778;9.252;2022-07-23T09:59:53;18.30;;;17.40;;
1122;SDS011;548;48.778;9.252;2022-07-23T10:02:24;17.43;;;16.63;;
1122;SDS011;548;48.778;9.252;2022-07-23T10:04:53;18.10;;;17.40;;
1122;SDS011;548;48.778;9.252;2022-07-23T10:07:21;17.90;;;17.17;;
1122;SDS011;548;48.778;9.252;2022-07-23T10:09:49;19.13;;;18.23;;
1122;SDS011;548;48.778;9.252;2022-07-23T10:12:19;19.33;;;18.33;;
1122;SDS011;548;48.778;9.252;2022-07-23T10:15:13;17.40;;;16.70;;
1122;SDS011;548;48.778;9.252;2022-07-23T10:20:37;17.50;;;16.70;;
1122;SDS011;548;48.778;9.252;2022-07-23T10:23:14;18.83;;;17.93;;
1122;SDS011;548;48.778;9.252;2022-07-23T10:25:49;18.03;;;17.07;;
1122;SDS011;548;48.778;9.252;2022-07-23T10:28:28;16.63;;;15.90;;
1122;SDS011;548;48.778;9.252;2022-07-23T10:31:09;17.37;;;16.60;;
1122;SDS011;548;48.778;9.252;2022-07-23T10:33:50;18.70;;;17.90;;
1122;SDS011;548;48.778;9.252;2022-07-23T10:36:28;18.27;;;17.47;;
1122;SDS011;548;48.778;9.252;2022-07-23T10:39:03;18.50;;;17.70;;
1122;SDS011;548;48.778;9.252;2022-07-23T10:41:32;18.77;;;17.73;;
1122;SDS011;548;48.778;9.252;2022-07-23T10:44:11;19.00;;;18.17;;
1122;SDS011;548;48.778;9.252;2022-07-23T10:46:55;18.30;;;17.50;;
1122;SDS011;548;48.778;9.252;2022-07-23T10:49:37;18.33;;;17.53;;
1122;SDS011;548;48.778;9.252;2022-07-23T10:52:23;19.30;;;18.40;;
1122;SDS011;548;48.778;9.252;2022-07-23T10:54:52;18.47;;;17.77;;
1122;SDS011;548;48.778;9.252;2022-07-23T10:57:21;20.00;;;19.20;;
1122;SDS011;548;48.778;9.252;2022-07-23T11:02:41;17.40;;;16.70;;
1122;SDS011;548;48.778;9.252;2022-07-23T11:05:10;19.97;;;19.07;;
1122;SDS011;548;48.778;9.252;2022-07-23T11:10:48;19.80;;;18.80;;
1122;SDS011;548;48.778;9.252;2022-07-23T11:13:27;19.03;;;18.23;;
1122;SDS011;548;48.778;9.252;2022-07-23T11:18:59;19.00;;;18.00;;
1122;SDS011;548;48.778;9.252;2022-07-23T11:21:43;18.63;;;17.83;;
1122;SDS011;548;48.778;9.252;2022-07-23T11:24:15;19.10;;;18.30;;
1122;SDS011;548;48.778;9.252;2022-07-23T11:26:44;18.93;;;18.13;;
1122;SDS011;548;48.778;9.252;2022-07-23T11:32:18;18.90;;;18.10;;
1122;SDS011;548;48.778;9.252;2022-07-23T11:34:50;19.07;;;18.27;;
1122;SDS011;548;48.778;9.252;2022-07-23T11:37:34;18.10;;;17.30;;
1122;SDS011;548;48.778;9.252;2022-07-23T11:40:04;18.03;;;17.23;;
1122;SDS011;548;48.778;9.252;2022-07-23T11:42:33;17.83;;;17.00;;
1122;SDS011;548;48.778;9.252;2022-07-23T11:45:01;17.87;;;16.97;;
1122;SDS011;548;48.778;9.252;2022-07-23T11:47:30;17.80;;;16.90;;
1122;SDS011;548;48.778;9.252;2022-07-23T11:49:57;18.37;;;17.37;;
1122;SDS011;548;48.778;9.252;2022-07-23T11:52:26;17.50;;;16.80;;
1122;SDS011;548;48.778;9.252;2022-07-23T11:54:54;17.90;;;17.00;;
1122;SDS011;548;48.778;9.252;2022-07-23T11:57:23;17.67;;;16.87;;
1122;SDS011;548;48.778;9.252;2022-07-23T11:59:52;18.27;;;17.13;;
1122;SDS011;548;48.778;9.252;2022-07-23T12:02:20;18.13;;;17.33;;
1122;SDS011;548;48.778;9.252;2022-07-23T12:04:50;18.17;;;17.17;;
1122;SDS011;548;48.778;9.252;2022-07-23T12:07:25;19.30;;;18.50;;
1122;SDS011;548;48.778;9.252;2022-07-23T12:09:53;18.13;;;17.33;;
1122;SDS011;548;48.778;9.252;2022-07-23T12:12:20;16.67;;;15.87;;
1122;SDS011;548;48.778;9.252;2022-07-23T12:14:51;17.93;;;17.10;;
1122;SDS011;548;48.778;9.252;2022-07-23T12:17:19;17.60;;;16.80;;
1122;SDS011;548;48.778;9.252;2022-07-23T12:19:47;18.20;;;17.40;;
1122;SDS011;548;48.778;9.252;2022-07-23T12:22:15;19.60;;;18.30;;
1122;SDS011;548;48.778;9.252;2022-07-23T12:24:58;18.37;;;17.47;;
1122;SDS011;548;48.778;9.252;2022-07-23T12:27:27;21.07;;;19.97;;
1122;SDS011;548;48.778;9.252;2022-07-23T12:29:54;16.83;;;16.03;;
1122;SDS011;548;48.778;9.252;2022-07-23T12:32:21;17.60;;;16.80;;
1122;SDS011;548;48.778;9.252;2022-07-23T12:34:50;19.00;;;18.10;;
1122;SDS011;548;48.778;9.252;2022-07-23T12:37:31;18.70;;;17.80;;
1122;SDS011;548;48.778;9.252;2022-07-23T12:42:54;19.90;;;18.77;;
1122;SDS011;548;48.778;9.252;2022-07-23T12:45:23;19.33;;;18.53;;
1122;SDS011;548;48.778;9.252;2022-07-23T12:47:51;18.53;;;17.73;;
1122;SDS011;548;48.778;9.252;2022-07-23T12:50:35;17.00;;;16.00;;
1122;SDS011;548;48.778;9.252;2022-07-23T12:53:06;16.83;;;16.03;;
1122;SDS011;548;48.778;9.252;2022-07-23T12:55:35;18.50;;;17.17;;
1122;SDS011;548;48.778;9.252;2022-07-23T12:58:03;18.90;;;18.00;;
1122;SDS011;548;48.778;9.252;2022-07-23T13:00:32;18.57;;;17.57;;
1122;SDS011;548;48.778;9.252;2022-07-23T13:03:20;18.47;;;17.37;;
1122;SDS011;548;48.778;9.252;2022-07-23T13:05:47;19.30;;;18.20;;
1122;SDS011;548;48.778;9.252;2022-07-23T13:08:15;18.20;;;17.40;;
1122;SDS011;548;48.778;9.252;2022-07-23T13:10:42;17.33;;;16.37;;
1122;SDS011;548;48.778;9.252;2022-07-23T13:13:12;19.40;;;18.37;;
1122;SDS011;548;48.778;9.252;2022-07-23T13:15:38;18.93;;;18.13;;
1122;SDS011;548;48.778;9.252;2022-07-23T13:18:05;18.50;;;17.60;;
1122;SDS011;548;48.778;9.252;2022-07-23T13:20:32;18.70;;;17.80;;
1122;SDS011;548;48.778;9.252;2022-07-23T13:22:59;19.80;;;18.80;;
1122;SDS011;548;48.778;9.252;2022-07-23T13:25:27;18.77;;;17.97;;
1122;SDS011;548;48.778;9.252;2022-07-23T13:27:54;18.27;;;17.37;;
1122;SDS011;548;48.778;9.252;2022-07-23T13:30:20;20.20;;;19.20;;
1122;SDS011;548;48.778;9.252;2022-07-23T13:32:47;19.43;;;18.53;;
1122;SDS011;548;48.778;9.252;2022-07-23T13:35:14;18.27;;;17.33;;
1122;SDS011;548;48.778;9.252;2022-07-23T13:37:41;18.80;;;17.77;;
1122;SDS011;548;48.778;9.252;2022-07-23T13:40:08;19.10;;;18.07;;
1122;SDS011;548;48.778;9.252;2022-07-23T13:42:37;19.10;;;18.07;;
1122;SDS011;548;48.778;9.252;2022-07-23T13:45:04;16.93;;;16.13;;
1122;SDS011;548;48.778;9.252;2022-07-23T13:47:32;17.53;;;16.73;;
1122;SDS011;548;48.778;9.252;2022-07-23T13:49:59;17.37;;;16.47;;
1122;SDS011;548;48.778;9.252;2022-07-23T13:52:25;17.60;;;16.77;;
1122;SDS011;548;48.778;9.252;2022-07-23T13:54:52;18.97;;;18.07;;
1122;SDS011;548;48.778;9.252;2022-07-23T13:57:19;19.50;;;18.43;;
1122;SDS011;548;48.778;9.252;2022-07-23T13:59:47;17.70;;;16.80;;
1122;SDS011;548;48.778;9.252;2022-07-23T14:02:14;18.93;;;17.87;;
1122;SDS011;548;48.778;9.252;2022-07-23T14:04:42;17.93;;;17.03;;
1122;SDS011;548;48.778;9.252;2022-07-23T14:07:09;18.07;;;17.27;;
1122;SDS011;548;48.778;9.252;2022-07-23T14:09:36;20.50;;;19.20;;
1122;SDS011;548;48.778;9.252;2022-07-23T14:12:03;19.03;;;18.13;;
1122;SDS011;548;48.778;9.252;2022-07-23T14:14:30;19.93;;;18.93;;
1122;SDS011;548;48.778;9.252;2022-07-23T14:16:58;20.07;;;18.97;;
1122;SDS011;548;48.778;9.252;2022-07-23T14:19:25;19.60;;;18.60;;
1122;SDS011;548;48.778;9.252;2022-07-23T14:21:52;18.80;;;17.90;;
1122;SDS011;548;48.778;9.252;2022-07-23T14:24:19;20.33;;;19.23;;
1122;SDS011;548;48.778;9.252;2022-07-23T14:26:45;19.60;;;18.70;;
1122;SDS011;548;48.778;9.252;2022-07-23T14:29:12;17.20;;;16.40;;
1122;SDS011;548;48.778;9.252;2022-07-23T14:31:39;18.30;;;17.50;;
1122;SDS011;548;48.778;9.252;2022-07-23T14:34:07;19.53;;;18.63;;
1122;SDS011;548;48.778;9.252;2022-07-23T14:36:33;19.20;;;18.20;;
1122;SDS011;548;48.778;9.252;2022-07-23T14:39:00;19.63;;;18.53;;
1122;SDS011;548;48.778;9.252;2022-07-23T14:41:27;19.10;;;18.00;;
1122;SDS011;548;48.778;9.252;2022-07-23T14:43:54;19.03;;;17.97;;
1122;SDS011;548;48.778;9.252;2022-07-23T14:46:20;17.87;;;17.07;;
1122;SDS011;548;48.778;9.252;2022-07-23T14:48:47;19.30;;;18.10;;
1122;SDS011;548;48.778;9.252;2022-07-23T14:51:15;17.17;;;16.27;;
1122;SDS011;548;48.778;9.252;2022-07-23T14:53:42;18.87;;;17.77;;
1122;SDS011;548;48.778;9.252;2022-07-23T14:56:09;18.70;;;17.57;;
1122;SDS011;548;48.778;9.252;2022-07-23T14:58:35;18.40;;;17.27;;
1122;SDS011;548;48.778;9.252;2022-07-23T15:01:02;17.20;;;16.40;;
1122;SDS011;548;48.778;9.252;2022-07-23T15:03:29;18.47;;;17.57;;
1122;SDS011;548;48.778;9.252;2022-07-23T15:05:55;19.20;;;18.20;;
1122;SDS011;548;48.778;9.252;2022-07-23T15:08:23;18.53;;;17.63;;
1122;SDS011;548;48.778;9.252;2022-07-23T15:10:50;18.53;;;17.57;;
1122;SDS011;548;48.778;9.252;2022-07-23T15:13:17;18.30;;;17.40;;
1122;SDS011;548;48.778;9.252;2022-07-23T15:15:44;19.23;;;18.33;;
1122;SDS011;548;48.778;9.252;2022-07-23T15:18:11;18.50;;;17.60;;
1122;SDS011;548;48.778;9.252;2022-07-23T15:20:38;17.90;;;17.00;;
1122;SDS011;548;48.778;9.252;2022-07-23T15:23:05;17.70;;;16.80;;
1122;SDS011;548;48.778;9.252;2022-07-23T15:25:33;18.63;;;17.73;;